sensor_id;sensor_type;location;lat;lon;timestamp;P1;durP1;ratioP1;P2;durP2;ratioP2
25637;SDS011;13496;51.040;13.680;2022-08-05T00:02:30;2.90;;;2.70;;
25637;SDS011;13496;51.040;13.680;2022-08-05T00:07:32;3.00;;;2.80;;
25637;SDS011;13496;51.040;13.680;2022-08-05T00:12:34;3.55;;;3.25;;
25637;SDS011;13496;51.040;13.680;2022-08-05T00:17:35;3.45;;;3.17;;
25637;SDS011;13496;51.040;13.680;2022-08-05T00:22:37;3.42;;;3.15;;
25637;SDS011;13496;51.040;13.680;2022-08-05T00:27:39;3.05;;;2.85;;
25637;SDS011;13496;51.040;13.680;2022-08-05T00:32:40;3.15;;;2.95;;
25637;SDS011;13496;51.040;13.680;2022-08-05T00:37:42;3.08;;;2.88;;
25637;SDS011;13496;51.040;13.680;2022-08-05T00:42:44;2.92;;;2.72;;
25637;SDS011;13496;51.040;13.680;2022-08-05T00:47:45;3.03;;;2.83;;
25637;SDS011;13496;51.040;13.680;2022-08-05T00:52:47;3.05;;;2.85;;
25637;SDS011;13496;51.040;13.680;2022-08-05T00:57:49;3.13;;;2.92;;
25637;SDS011;13496;51.040;13.680;2022-08-05T01:02:51;3.05;;;2.85;;
25637;SDS011;13496;51.040;13.680;2022-08-05T01:07:52;3.25;;;3.05;;
25637;SDS011;13496;51.040;13.680;2022-08-05T01:12:54;3.45;;;3.25;;
25637;SDS011;13496;51.040;13.680;2022-08-05T01:18:05;3.28;;;3.08;;
25637;SDS011;13496;51.040;13.680;2022-08-05T01:23:15;3.25;;;2.95;;
25637;SDS011;13496;51.040;13.680;2022-08-05T01:34:07;3.75;;;3.30;;
25637;SDS011;13496;51.040;13.680;2022-08-05T01:39:12;3.05;;;2.85;;
25637;SDS011;13496;51.040;13.680;2022-08-05T01:44:17;3.10;;;2.90;;
25637;SDS011;13496;51.040;13.680;2022-08-05T01:49:21;3.35;;;3.15;;
25637;SDS011;13496;51.040;13.680;2022-08-05T01:54:26;3.50;;;3.20;;
25637;SDS011;13496;51.040;13.680;2022-08-05T01:59:36;3.08;;;2.88;;
25637;SDS011;13496;51.040;13.680;2022-08-05T02:04:40;3.40;;;3.05;;
25637;SDS011;13496;51.040;13.680;2022-08-05T02:09:43;3.53;;;3.22;;
25637;SDS011;13496;51.040;13.680;2022-08-05T02:14:51;3.45;;;3.25;;
25637;SDS011;13496;51.040;13.680;2022-08-05T02:20:02;3.50;;;3.30;;
25637;SDS011;13496;51.040;13.680;2022-08-05T02:25:11;3.25;;;3.05;;
25637;SDS011;13496;51.040;13.680;2022-08-05T02:30:16;3.58;;;3.28;;
25637;SDS011;13496;51.040;13.680;2022-08-05T02:35:19;3.55;;;3.35;;
25637;SDS011;13496;51.040;13.680;2022-08-05T02:40:23;3.85;;;3.55;;
25637;SDS011;13496;51.040;13.680;2022-08-05T02:45:26;3.58;;;3.38;;
25637;SDS011;13496;51.040;13.680;2022-08-05T02:50:29;3.97;;;3.67;;
25637;SDS011;13496;51.040;13.680;2022-08-05T02:55:31;3.22;;;3.03;;
25637;SDS011;13496;51.040;13.680;2022-08-05T03:00:34;3.50;;;3.20;;
25637;SDS011;13496;51.040;13.680;2022-08-05T03:05:37;3.47;;;3.20;;
25637;SDS011;13496;51.040;13.680;2022-08-05T03:10:44;3.65;;;3.40;;
25637;SDS011;13496;51.040;13.680;2022-08-05T03:15:46;3.50;;;3.25;;
25637;SDS011;13496;51.040;13.680;2022-08-05T03:20:48;3.88;;;3.58;;
25637;SDS011;13496;51.040;13.680;2022-08-05T03:25:50;3.80;;;3.50;;
25637;SDS011;13496;51.040;13.680;2022-08-05T03:30:51;4.13;;;3.72;;
25637;SDS011;13496;51.040;13.680;2022-08-05T03:35:54;3.38;;;3.17;;
25637;SDS011;13496;51.040;13.680;2022-08-05T03:40:57;3.30;;;3.10;;
25637;SDS011;13496;51.040;13.680;2022-08-05T03:45:59;3.53;;;3.28;;
25637;SDS011;13496;51.040;13.680;2022-08-05T03:56:23;3.40;;;3.15;;
25637;SDS011;13496;51.040;13.680;2022-08-05T04:01:30;3.80;;;3.50;;
25637;SDS011;13496;51.040;13.680;2022-08-05T04:06:34;3.70;;;3.42;;
25637;SDS011;13496;51.040;13.680;2022-08-05T04:11:37;3.45;;;3.15;;
25637;SDS011;13496;51.040;13.680;2022-08-05T04:16:39;3.28;;;3.08;;
25637;SDS011;13496;51.040;13.680;2022-08-05T04:21:41;3.90;;;3.60;;
25637;SDS011;13496;51.040;13.680;2022-08-05T04:26:43;3.60;;;3.30;;
25637;SDS011;13496;51.040;13.680;2022-08-05T04:31:45;3.55;;;3.35;;
25637;SDS011;13496;51.040;13.680;2022-08-05T04:36:46;3.60;;;3.30;;
25637;SDS011;13496;51.040;13.680;2022-08-05T04:41:48;3.78;;;3.47;;
25637;SDS011;13496;51.040;13.680;2022-08-05T04:46:51;3.42;;;3.22;;
25637;SDS011;13496;51.040;13.680;2022-08-05T04:51:52;4.28;;;3.63;;
25637;SDS011;13496;51.040;13.680;2022-08-05T04:56:54;3.50;;;3.28;;
25637;SDS011;13496;51.040;13.680;2022-08-05T05:01:56;3.72;;;3.38;;
25637;SDS011;13496;51.040;13.680;2022-08-05T05:06:58;5.78;;;3.72;;
25637;SDS011;13496;51.040;13.680;2022-08-05T05:12:00;4.15;;;3.45;;
25637;SDS011;13496;51.040;13.680;2022-08-05T05:17:02;3.80;;;3.50;;
25637;SDS011;13496;51.040;13.680;2022-08-05T05:22:03;5.22;;;3.88;;
25637;SDS011;13496;51.040;13.680;2022-08-05T05:27:05;5.35;;;3.55;;
25637;SDS011;13496;51.040;13.680;2022-08-05T05:32:07;4.05;;;3.75;;
25637;SDS011;13496;51.040;13.680;2022-08-05T05:37:08;7.07;;;3.58;;
25637;SDS011;13496;51.040;13.680;2022-08-05T05:42:12;5.80;;;3.42;;
25637;SDS011;13496;51.040;13.680;2022-08-05T05:47:14;4.25;;;3.90;;
25637;SDS011;13496;51.040;13.680;2022-08-05T05:52:16;4.10;;;3.80;;
25637;SDS011;13496;51.040;13.680;2022-08-05T05:57:17;4.18;;;3.85;;
25637;SDS011;13496;51.040;13.680;2022-08-05T06:02:20;5.00;;;3.47;;
25637;SDS011;13496;51.040;13.680;2022-08-05T06:07:21;4.13;;;3.83;;
25637;SDS011;13496;51.040;13.680;2022-08-05T06:12:23;4.30;;;3.92;;
25637;SDS011;13496;51.040;13.680;2022-08-05T06:17:25;4.22;;;3.70;;
25637;SDS011;13496;51.040;13.680;2022-08-05T06:22:27;3.70;;;3.45;;
25637;SDS011;13496;51.040;13.680;2022-08-05T06:27:30;3.65;;;3.35;;
25637;SDS011;13496;51.040;13.680;2022-08-05T06:32:32;3.92;;;3.63;;
25637;SDS011;13496;51.040;13.680;2022-08-05T06:37:33;3.97;;;3.63;;
25637;SDS011;13496;51.040;13.680;2022-08-05T06:42:35;3.97;;;3.58;;
25637;SDS011;13496;51.040;13.680;2022-08-05T06:47:37;3.72;;;3.42;;
25637;SDS011;13496;51.040;13.680;2022-08-05T06:52:39;4.97;;;3.38;;
25637;SDS011;13496;51.040;13.680;2022-08-05T06:57:41;3.53;;;3.22;;
25637;SDS011;13496;51.040;13.680;2022-08-05T07:02:46;3.25;;;2.97;;
25637;SDS011;13496;51.040;13.680;2022-08-05T07:07:47;3.17;;;2.97;;
25637;SDS011;13496;51.040;13.680;2022-08-05T07:12:49;3.47;;;3.00;;
25637;SDS011;13496;51.040;13.680;2022-08-05T07:18:10;5.22;;;3.35;;
25637;SDS011;13496;51.040;13.680;2022-08-05T07:23:12;3.92;;;2.97;;
25637;SDS011;13496;51.040;13.680;2022-08-05T07:28:13;4.55;;;3.65;;
25637;SDS011;13496;51.040;13.680;2022-08-05T07:33:15;4.43;;;2.92;;
25637;SDS011;13496;51.040;13.680;2022-08-05T07:38:17;3.40;;;3.10;;
25637;SDS011;13496;51.040;13.680;2022-08-05T07:43:19;4.50;;;3.65;;
25637;SDS011;13496;51.040;13.680;2022-08-05T07:48:20;8.20;;;3.60;;
25637;SDS011;13496;51.040;13.680;2022-08-05T07:53:22;6.30;;;3.63;;
25637;SDS011;13496;51.040;13.680;2022-08-05T07:58:24;3.90;;;3.60;;
25637;SDS011;13496;51.040;13.680;2022-08-05T08:03:25;4.05;;;3.75;;
25637;SDS011;13496;51.040;13.680;2022-08-05T08:08:27;3.85;;;3.55;;
25637;SDS011;13496;51.040;13.680;2022-08-05T08:13:29;4.22;;;3.72;;
25637;SDS011;13496;51.040;13.680;2022-08-05T08:18:31;3.75;;;3.45;;
25637;SDS011;13496;51.040;13.680;2022-08-05T08:23:33;4.28;;;3.30;;
25637;SDS011;13496;51.040;13.680;2022-08-05T08:28:35;3.58;;;3.30;;
25637;SDS011;13496;51.040;13.680;2022-08-05T08:33:37;3.92;;;3.58;;
25637;SDS011;13496;51.040;13.680;2022-08-05T08:38:39;3.38;;;3.05;;
25637;SDS011;13496;51.040;13.680;2022-08-05T08:43:40;3.72;;;3.40;;
25637;SDS011;13496;51.040;13.680;2022-08-05T08:48:44;3.95;;;3.45;;
25637;SDS011;13496;51.040;13.680;2022-08-05T08:53:48;3.60;;;3.30;;
25637;SDS011;13496;51.040;13.680;2022-08-05T08:58:50;6.07;;;3.50;;
25637;SDS011;13496;51.040;13.680;2022-08-05T09:03:53;3.58;;;2.97;;
25637;SDS011;13496;51.040;13.680;2022-08-05T09:08:57;6.07;;;3.75;;
25637;SDS011;13496;51.040;13.680;2022-08-05T09:14:00;4.93;;;3.25;;
25637;SDS011;13496;51.040;13.680;2022-08-05T09:19:01;5.55;;;3.28;;
25637;SDS011;13496;51.040;13.680;2022-08-05T09:24:04;3.67;;;3.38;;
25637;SDS011;13496;51.040;13.680;2022-08-05T09:29:09;3.97;;;3.60;;
25637;SDS011;13496;51.040;13.680;2022-08-05T09:34:10;4.40;;;3.65;;
25637;SDS011;13496;51.040;13.680;2022-08-05T09:39:12;3.78;;;3.45;;
25637;SDS011;13496;51.040;13.680;2022-08-05T09:44:16;3.70;;;3.40;;
25637;SDS011;13496;51.040;13.680;2022-08-05T09:49:49;3.55;;;3.00;;
25637;SDS011;13496;51.040;13.680;2022-08-05T09:54:53;4.35;;;3.70;;
25637;SDS011;13496;51.040;13.680;2022-08-05T10:05:18;8.43;;;4.00;;
25637;SDS011;13496;51.040;13.680;2022-08-05T10:10:23;4.53;;;3.40;;
25637;SDS011;13496;51.040;13.680;2022-08-05T10:15:27;4.28;;;3.30;;
25637;SDS011;13496;51.040;13.680;2022-08-05T10:20:31;4.80;;;3.67;;
25637;SDS011;13496;51.040;13.680;2022-08-05T10:25:34;4.82;;;3.58;;
25637;SDS011;13496;51.040;13.680;2022-08-05T10:30:37;4.38;;;3.97;;
25637;SDS011;13496;51.040;13.680;2022-08-05T10:35:39;4.32;;;3.60;;
25637;SDS011;13496;51.040;13.680;2022-08-05T10:40:51;4.85;;;3.75;;
25637;SDS011;13496;51.040;13.680;2022-08-05T10:45:59;5.88;;;3.92;;
25637;SDS011;13496;51.040;13.680;2022-08-05T10:51:04;4.00;;;3.50;;
25637;SDS011;13496;51.040;13.680;2022-08-05T10:56:10;5.78;;;4.15;;
25637;SDS011;13496;51.040;13.680;2022-08-05T11:01:16;4.32;;;4.03;;
25637;SDS011;13496;51.040;13.680;2022-08-05T11:06:18;4.03;;;3.60;;
25637;SDS011;13496;51.040;13.680;2022-08-05T11:11:32;4.82;;;4.40;;
25637;SDS011;13496;51.040;13.680;2022-08-05T11:16:36;4.57;;;4.15;;
25637;SDS011;13496;51.040;13.680;2022-08-05T11:21:37;4.85;;;3.35;;
25637;SDS011;13496;51.040;13.680;2022-08-05T11:26:39;4.45;;;4.05;;
25637;SDS011;13496;51.040;13.680;2022-08-05T11:31:41;4.53;;;4.15;;
25637;SDS011;13496;51.040;13.680;2022-08-05T11:36:45;4.00;;;3.40;;
25637;SDS011;13496;51.040;13.680;2022-08-05T11:41:49;3.97;;;3.63;;
25637;SDS011;13496;51.040;13.680;2022-08-05T11:46:53;4.00;;;3.60;;
25637;SDS011;13496;51.040;13.680;2022-08-05T11:51:54;3.80;;;3.50;;
25637;SDS011;13496;51.040;13.680;2022-08-05T11:56:56;3.92;;;3.60;;
25637;SDS011;13496;51.040;13.680;2022-08-05T12:01:59;4.05;;;3.67;;
25637;SDS011;13496;51.040;13.680;2022-08-05T12:07:02;4.13;;;3.80;;
25637;SDS011;13496;51.040;13.680;2022-08-05T12:12:05;3.78;;;3.45;;
25637;SDS011;13496;51.040;13.680;2022-08-05T12:17:09;3.53;;;3.33;;
25637;SDS011;13496;51.040;13.680;2022-08-05T12:22:12;4.45;;;3.67;;
25637;SDS011;13496;51.040;13.680;2022-08-05T12:27:22;3.92;;;3.63;;
25637;SDS011;13496;51.040;13.680;2022-08-05T12:32:32;3.60;;;3.30;;
25637;SDS011;13496;51.040;13.680;2022-08-05T12:37:47;3.80;;;3.40;;
25637;SDS011;13496;51.040;13.680;2022-08-05T12:42:49;3.17;;;2.97;;
25637;SDS011;13496;51.040;13.680;2022-08-05T12:47:51;3.20;;;3.00;;
25637;SDS011;13496;51.040;13.680;2022-08-05T12:52:56;3.25;;;3.05;;
25637;SDS011;13496;51.040;13.680;2022-08-05T12:58:01;3.45;;;3.20;;
25637;SDS011;13496;51.040;13.680;2022-08-05T13:03:03;3.47;;;3.17;;
25637;SDS011;13496;51.040;13.680;2022-08-05T13:08:05;3.08;;;2.88;;
25637;SDS011;13496;51.040;13.680;2022-08-05T13:13:06;3.25;;;2.95;;
25637;SDS011;13496;51.040;13.680;2022-08-05T13:18:08;3.05;;;2.85;;
25637;SDS011;13496;51.040;13.680;2022-08-05T13:23:10;4.20;;;2.97;;
25637;SDS011;13496;51.040;13.680;2022-08-05T13:28:12;2.85;;;2.65;;
25637;SDS011;13496;51.040;13.680;2022-08-05T13:33:14;3.47;;;3.17;;
25637;SDS011;13496;51.040;13.680;2022-08-05T13:38:15;3.05;;;2.78;;
25637;SDS011;13496;51.040;13.680;2022-08-05T13:43:17;2.63;;;2.50;;
25637;SDS011;13496;51.040;13.680;2022-08-05T13:48:19;3.58;;;2.75;;
25637;SDS011;13496;51.040;13.680;2022-08-05T13:53:20;4.50;;;2.97;;
25637;SDS011;13496;51.040;13.680;2022-08-05T13:58:22;2.92;;;2.72;;
25637;SDS011;13496;51.040;13.680;2022-08-05T14:03:24;2.70;;;2.50;;
25637;SDS011;13496;51.040;13.680;2022-08-05T14:08:28;2.50;;;2.28;;
25637;SDS011;13496;51.040;13.680;2022-08-05T14:13:29;2.45;;;2.25;;
25637;SDS011;13496;51.040;13.680;2022-08-05T14:18:31;2.58;;;2.38;;
25637;SDS011;13496;51.040;13.680;2022-08-05T14:23:33;2.45;;;2.25;;
25637;SDS011;13496;51.040;13.680;2022-08-05T14:28:34;2.83;;;2.42;;
25637;SDS011;13496;51.040;13.680;2022-08-05T14:33:36;3.38;;;2.65;;
25637;SDS011;13496;51.040;13.680;2022-08-05T14:38:38;2.72;;;2.53;;
25637;SDS011;13496;51.040;13.680;2022-08-05T14:43:39;2.50;;;2.30;;
25637;SDS011;13496;51.040;13.680;2022-08-05T14:48:41;2.65;;;2.45;;
25637;SDS011;13496;51.040;13.680;2022-08-05T14:53:44;2.85;;;2.65;;
25637;SDS011;13496;51.040;13.680;2022-08-05T14:58:46;2.63;;;2.42;;
25637;SDS011;13496;51.040;13.680;2022-08-05T15:03:48;2.95;;;2.65;;
25637;SDS011;13496;51.040;13.680;2022-08-05T15:08:50;3.00;;;2.60;;
25637;SDS011;13496;51.040;13.680;2022-08-05T15:13:51;2.60;;;2.40;;
25637;SDS011;13496;51.040;13.680;2022-08-05T15:18:53;2.63;;;2.42;;
25637;SDS011;13496;51.040;13.680;2022-08-05T15:23:55;2.63;;;2.42;;
25637;SDS011;13496;51.040;13.680;2022-08-05T15:28:57;3.70;;;3.30;;
25637;SDS011;13496;51.040;13.680;2022-08-05T15:33:58;3.92;;;3.40;;
25637;SDS011;13496;51.040;13.680;2022-08-05T15:39:00;3.42;;;2.60;;
25637;SDS011;13496;51.040;13.680;2022-08-05T15:44:02;4.13;;;3.03;;
25637;SDS011;13496;51.040;13.680;2022-08-05T15:49:03;2.92;;;2.72;;
25637;SDS011;13496;51.040;13.680;2022-08-05T15:54:05;4.88;;;2.90;;
25637;SDS011;13496;51.040;13.680;2022-08-05T15:59:07;2.42;;;2.22;;
25637;SDS011;13496;51.040;13.680;2022-08-05T16:04:09;3.03;;;2.30;;
25637;SDS011;13496;51.040;13.680;2022-08-05T16:09:10;2.65;;;2.30;;
25637;SDS011;13496;51.040;13.680;2022-08-05T16:14:12;3.10;;;2.80;;
25637;SDS011;13496;51.040;13.680;2022-08-05T16:19:14;2.78;;;2.30;;
25637;SDS011;13496;51.040;13.680;2022-08-05T16:24:16;3.00;;;2.80;;
25637;SDS011;13496;51.040;13.680;2022-08-05T16:29:17;2.60;;;2.33;;
25637;SDS011;13496;51.040;13.680;2022-08-05T16:34:21;2.80;;;2.60;;
25637;SDS011;13496;51.040;13.680;2022-08-05T16:39:23;3.17;;;2.90;;
25637;SDS011;13496;51.040;13.680;2022-08-05T16:44:25;3.28;;;3.00;;
25637;SDS011;13496;51.040;13.680;2022-08-05T16:49:27;3.90;;;2.97;;
25637;SDS011;13496;51.040;13.680;2022-08-05T16:54:29;3.72;;;2.80;;
25637;SDS011;13496;51.040;13.680;2022-08-05T16:59:32;3.40;;;3.13;;
25637;SDS011;13496;51.040;13.680;2022-08-05T17:04:33;5.72;;;3.38;;
25637;SDS011;13496;51.040;13.680;2022-08-05T17:09:35;3.47;;;2.63;;
25637;SDS011;13496;51.040;13.680;2022-08-05T17:14:37;3.88;;;3.05;;
25637;SDS011;13496;51.040;13.680;2022-08-05T17:19:38;5.13;;;2.97;;
25637;SDS011;13496;51.040;13.680;2022-08-05T17:24:41;3.78;;;2.60;;
25637;SDS011;13496;51.040;13.680;2022-08-05T17:29:43;3.67;;;2.83;;
25637;SDS011;13496;51.040;13.680;2022-08-05T17:34:46;3.72;;;2.42;;
25637;SDS011;13496;51.040;13.680;2022-08-05T17:39:48;2.45;;;2.25;;
25637;SDS011;13496;51.040;13.680;2022-08-05T17:44:50;3.55;;;2.20;;
25637;SDS011;13496;51.040;13.680;2022-08-05T17:49:51;2.65;;;2.45;;
25637;SDS011;13496;51.040;13.680;2022-08-05T17:54:53;3.33;;;2.50;;
25637;SDS011;13496;51.040;13.680;2022-08-05T17:59:55;3.35;;;2.50;;
25637;SDS011;13496;51.040;13.680;2022-08-05T18:04:57;112.18;;;13.23;;
25637;SDS011;13496;51.040;13.680;2022-08-05T18:09:58;12.88;;;3.33;;
25637;SDS011;13496;51.040;13.680;2022-08-05T18:15:00;12.85;;;3.58;;
25637;SDS011;13496;51.040;13.680;2022-08-05T18:20:02;8.98;;;3.30;;
25637;SDS011;13496;51.040;13.680;2022-08-05T18:25:05;10.18;;;3.05;;
25637;SDS011;13496;51.040;13.680;2022-08-05T18:30:07;8.07;;;3.67;;
25637;SDS011;13496;51.040;13.680;2022-08-05T18:35:09;8.43;;;4.22;;
25637;SDS011;13496;51.040;13.680;2022-08-05T18:40:11;8.43;;;4.93;;
25637;SDS011;13496;51.040;13.680;2022-08-05T18:45:14;6.07;;;4.63;;
25637;SDS011;13496;51.040;13.680;2022-08-05T18:50:16;7.18;;;5.25;;
25637;SDS011;13496;51.040;13.680;2022-08-05T18:55:37;5.63;;;4.63;;
25637;SDS011;13496;51.040;13.680;2022-08-05T19:00:38;6.80;;;5.30;;
25637;SDS011;13496;51.040;13.680;2022-08-05T19:05:40;6.15;;;5.55;;
25637;SDS011;13496;51.040;13.680;2022-08-05T19:10:42;11.80;;;6.00;;
25637;SDS011;13496;51.040;13.680;2022-08-05T19:15:43;7.68;;;6.32;;
25637;SDS011;13496;51.040;13.680;2022-08-05T19:20:45;9.02;;;6.43;;
25637;SDS011;13496;51.040;13.680;2022-08-05T19:25:48;11.15;;;6.57;;
25637;SDS011;13496;51.040;13.680;2022-08-05T19:30:50;11.10;;;6.22;;
25637;SDS011;13496;51.040;13.680;2022-08-05T19:35:51;18.55;;;7.18;;
25637;SDS011;13496;51.040;13.680;2022-08-05T19:40:54;8.85;;;6.65;;
25637;SDS011;13496;51.040;13.680;2022-08-05T19:45:56;6.63;;;5.18;;
25637;SDS011;13496;51.040;13.680;2022-08-05T19:50:58;6.22;;;5.18;;
25637;SDS011;13496;51.040;13.680;2022-08-05T19:55:59;5.38;;;4.82;;
25637;SDS011;13496;51.040;13.680;2022-08-05T20:01:01;4.57;;;4.00;;
25637;SDS011;13496;51.040;13.680;2022-08-05T20:06:03;5.40;;;3.88;;
25637;SDS011;13496;51.040;13.680;2022-08-05T20:11:06;5.82;;;4.40;;
25637;SDS011;13496;51.040;13.680;2022-08-05T20:16:08;3.55;;;3.25;;
25637;SDS011;13496;51.040;13.680;2022-08-05T20:21:10;3.28;;;2.83;;
25637;SDS011;13496;51.040;13.680;2022-08-05T20:26:12;4.18;;;2.90;;
25637;SDS011;13496;51.040;13.680;2022-08-05T20:31:14;3.72;;;2.53;;
25637;SDS011;13496;51.040;13.680;2022-08-05T20:36:17;3.13;;;2.35;;
25637;SDS011;13496;51.040;13.680;2022-08-05T20:41:19;3.10;;;1.80;;
25637;SDS011;13496;51.040;13.680;2022-08-05T20:46:21;2.10;;;1.73;;
25637;SDS011;13496;51.040;13.680;2022-08-05T20:51:22;2.67;;;1.70;;
25637;SDS011;13496;51.040;13.680;2022-08-05T20:56:24;1.88;;;1.60;;
25637;SDS011;13496;51.040;13.680;2022-08-05T21:01:26;3.03;;;1.80;;
25637;SDS011;13496;51.040;13.680;2022-08-05T21:06:28;1.83;;;1.60;;
25637;SDS011;13496;51.040;13.680;2022-08-05T21:11:30;2.83;;;1.70;;
25637;SDS011;13496;51.040;13.680;2022-08-05T21:16:32;1.83;;;1.63;;
25637;SDS011;13496;51.040;13.680;2022-08-05T21:21:33;1.75;;;1.65;;
25637;SDS011;13496;51.040;13.680;2022-08-05T21:26:35;3.40;;;1.70;;
25637;SDS011;13496;51.040;13.680;2022-08-05T21:31:37;1.38;;;1.25;;
25637;SDS011;13496;51.040;13.680;2022-08-05T21:36:39;3.55;;;1.40;;
25637;SDS011;13496;51.040;13.680;2022-08-05T21:41:40;1.67;;;1.50;;
25637;SDS011;13496;51.040;13.680;2022-08-05T21:46:42;2.75;;;1.70;;
25637;SDS011;13496;51.040;13.680;2022-08-05T21:51:44;19.67;;;3.50;;
25637;SDS011;13496;51.040;13.680;2022-08-05T21:56:45;3.55;;;1.60;;
25637;SDS011;13496;51.040;13.680;2022-08-05T22:01:47;2.08;;;1.63;;
25637;SDS011;13496;51.040;13.680;2022-08-05T22:06:49;1.75;;;1.23;;
25637;SDS011;13496;51.040;13.680;2022-08-05T22:11:50;1.40;;;1.30;;
25637;SDS011;13496;51.040;13.680;2022-08-05T22:16:52;1.95;;;1.48;;
25637;SDS011;13496;51.040;13.680;2022-08-05T22:21:54;1.48;;;1.38;;
25637;SDS011;13496;51.040;13.680;2022-08-05T22:26:55;1.65;;;1.52;;
25637;SDS011;13496;51.040;13.680;2022-08-05T22:32:16;2.13;;;1.55;;
25637;SDS011;13496;51.040;13.680;2022-08-05T22:37:17;1.77;;;1.50;;
25637;SDS011;13496;51.040;13.680;2022-08-05T22:42:19;2.22;;;1.58;;
25637;SDS011;13496;51.040;13.680;2022-08-05T22:47:21;2.00;;;1.52;;
25637;SDS011;13496;51.040;13.680;2022-08-05T22:52:22;2.17;;;1.63;;
25637;SDS011;13496;51.040;13.680;2022-08-05T22:57:24;2.78;;;1.50;;
25637;SDS011;13496;51.040;13.680;2022-08-05T23:02:26;2.65;;;1.95;;
25637;SDS011;13496;51.040;13.680;2022-08-05T23:07:28;2.60;;;1.80;;
25637;SDS011;13496;51.040;13.680;2022-08-05T23:12:30;3.33;;;2.03;;
25637;SDS011;13496;51.040;13.680;2022-08-05T23:17:32;3.07;;;1.97;;
25637;SDS011;13496;51.040;13.680;2022-08-05T23:22:33;2.08;;;1.88;;
25637;SDS011;13496;51.040;13.680;2022-08-05T23:27:35;4.93;;;1.88;;
25637;SDS011;13496;51.040;13.680;2022-08-05T23:32:37;2.00;;;1.85;;
25637;SDS011;13496;51.040;13.680;2022-08-05T23:37:39;1.80;;;1.70;;
25637;SDS011;13496;51.040;13.680;2022-08-05T23:42:40;2.40;;;1.80;;
25637;SDS011;13496;51.040;13.680;2022-08-05T23:47:42;2.33;;;2.13;;
25637;SDS011;13496;51.040;13.680;2022-08-05T23:52:44;3.10;;;1.90;;
25637;SDS011;13496;51.040;13.680;2022-08-05T23:57:45;2.47;;;1.90;;
